createdAt,value
2018-06-21T00:00:11.474Z,99.90
2018-06-21T00:02:39.751Z,99.90
2018-06-21T00:05:15.112Z,99.90
2018-06-21T00:07:43.340Z,99.90
2018-06-21T00:10:11.528Z,99.90
2018-06-21T00:12:40.684Z,99.90
2018-06-21T00:15:08.899Z,99.90
2018-06-21T00:17:37.132Z,99.90
2018-06-21T00:20:10.197Z,99.90
2018-06-21T00:22:38.426Z,99.90
2018-06-21T00:25:06.640Z,99.90
2018-06-21T00:30:05.488Z,99.90
2018-06-21T00:32:36.722Z,99.90
2018-06-21T00:35:08.559Z,99.90
2018-06-21T00:37:37.078Z,99.90
2018-06-21T00:40:05.320Z,99.90
2018-06-21T00:42:33.572Z,99.90
2018-06-21T00:45:01.905Z,99.90
2018-06-21T00:47:30.189Z,99.90
2018-06-21T00:52:31.541Z,99.90
2018-06-21T00:54:59.750Z,99.90
2018-06-21T00:57:27.957Z,99.90
2018-06-21T00:59:56.189Z,99.90
2018-06-21T01:02:24.398Z,99.90
2018-06-21T01:04:57.033Z,99.90
2018-06-21T01:07:25.219Z,99.90
2018-06-21T01:09:53.471Z,99.90
2018-06-21T01:14:52.740Z,99.90
2018-06-21T01:17:20.932Z,99.90
2018-06-21T01:19:49.160Z,99.90
2018-06-21T01:22:17.347Z,99.90
2018-06-21T01:27:13.580Z,99.90
2018-06-21T01:29:42.483Z,99.90
2018-06-21T01:34:38.972Z,99.90
2018-06-21T01:37:07.196Z,99.90
2018-06-21T01:39:35.415Z,99.90
2018-06-21T01:42:03.593Z,99.90
2018-06-21T01:44:31.802Z,99.90
2018-06-21T01:47:00.022Z,99.90
2018-06-21T01:49:28.219Z,99.90
2018-06-21T01:51:56.460Z,99.90
2018-06-21T01:54:24.715Z,99.90
2018-06-21T01:56:52.940Z,99.90
2018-06-21T01:59:21.248Z,99.90
2018-06-21T02:01:49.452Z,99.90
2018-06-21T02:04:17.740Z,99.90
2018-06-21T02:06:45.911Z,99.90
2018-06-21T02:09:14.187Z,99.90
2018-06-21T02:11:42.364Z,99.90
2018-06-21T02:14:10.627Z,99.90
2018-06-21T02:16:38.803Z,99.90
2018-06-21T02:19:07.051Z,99.90
2018-06-21T02:21:38.552Z,99.90
2018-06-21T02:24:11.015Z,99.90
2018-06-21T02:26:39.246Z,99.90
2018-06-21T02:29:07.468Z,99.90
2018-06-21T02:31:35.715Z,99.90
2018-06-21T02:34:03.956Z,99.90
2018-06-21T02:36:35.984Z,99.90
2018-06-21T02:39:06.089Z,99.90
2018-06-21T02:41:34.289Z,99.90
2018-06-21T02:44:02.556Z,99.90
2018-06-21T02:46:31.220Z,99.90
2018-06-21T02:48:59.411Z,99.90
2018-06-21T02:51:27.598Z,99.90
2018-06-21T02:53:58.701Z,99.90
2018-06-21T02:56:27.951Z,99.90
2018-06-21T02:58:56.192Z,99.90
2018-06-21T03:01:24.654Z,99.90
2018-06-21T03:03:53.053Z,99.90
2018-06-21T03:06:21.168Z,99.90
2018-06-21T03:08:52.700Z,99.90
2018-06-21T03:11:21.376Z,99.90
2018-06-21T03:13:49.591Z,99.90
2018-06-21T03:16:17.804Z,99.90
2018-06-21T03:18:46.488Z,99.90
2018-06-21T03:21:14.697Z,99.90
2018-06-21T03:23:46.880Z,99.90
2018-06-21T03:26:15.097Z,99.90
2018-06-21T03:28:43.366Z,99.90
2018-06-21T03:31:11.855Z,99.90
2018-06-21T03:33:40.584Z,99.90
2018-06-21T03:36:08.832Z,99.90
2018-06-21T03:38:37.023Z,99.90
2018-06-21T03:41:06.177Z,99.90
2018-06-21T03:43:34.451Z,99.90
2018-06-21T03:46:02.683Z,99.90
2018-06-21T03:48:31.120Z,99.90
2018-06-21T03:53:31.885Z,99.90
2018-06-21T03:56:00.369Z,99.90
2018-06-21T03:58:28.572Z,99.90
2018-06-21T04:00:56.768Z,99.90
2018-06-21T04:03:25.907Z,99.90
2018-06-21T04:05:54.103Z,99.90
2018-06-21T04:08:22.353Z,99.90
2018-06-21T04:10:51.088Z,99.90
2018-06-21T04:13:20.192Z,99.90
2018-06-21T04:15:48.465Z,99.90
2018-06-21T04:18:20.712Z,99.90
2018-06-21T04:20:49.235Z,99.90
2018-06-21T04:23:23.827Z,99.90
2018-06-21T04:25:52.523Z,99.90
2018-06-21T04:28:20.739Z,99.90
2018-06-21T04:30:48.965Z,99.90
2018-06-21T04:33:17.191Z,99.90
2018-06-21T04:35:45.411Z,99.90
2018-06-21T04:38:13.703Z,99.90
2018-06-21T04:40:42.240Z,99.90
2018-06-21T04:43:10.521Z,99.90
2018-06-21T04:48:06.916Z,99.90
2018-06-21T04:50:35.140Z,99.90
2018-06-21T04:53:05.035Z,99.90
2018-06-21T04:55:33.523Z,99.90
2018-06-21T04:58:02.032Z,99.90
2018-06-21T05:00:30.317Z,99.90
2018-06-21T05:02:58.551Z,99.90
2018-06-21T05:05:27.072Z,99.90
2018-06-21T05:07:55.309Z,99.90
2018-06-21T05:10:26.410Z,99.90
2018-06-21T05:12:54.692Z,99.90
2018-06-21T05:15:22.909Z,98.20
2018-06-21T05:17:51.160Z,96.80
2018-06-21T05:20:19.380Z,94.50
2018-06-21T05:22:51.440Z,93.20
2018-06-21T05:25:19.664Z,92.70
2018-06-21T05:27:48.038Z,92.20
2018-06-21T05:30:16.684Z,91.40
2018-06-21T05:32:45.015Z,90.80
2018-06-21T05:35:13.344Z,90.80
2018-06-21T05:37:41.559Z,90.30
2018-06-21T05:40:40.921Z,90.00
2018-06-21T05:43:09.441Z,89.50
2018-06-21T05:45:37.781Z,87.90
2018-06-21T05:48:06.199Z,86.40
2018-06-21T05:53:03.671Z,85.10
2018-06-21T05:55:36.904Z,83.70
2018-06-21T05:58:05.109Z,84.50
2018-06-21T06:00:33.328Z,85.30
2018-06-21T06:03:01.541Z,84.30
2018-06-21T06:05:29.816Z,83.10
2018-06-21T06:07:58.051Z,82.90
2018-06-21T06:10:26.396Z,81.00
2018-06-21T06:12:54.635Z,81.50
2018-06-21T06:15:22.884Z,80.80
2018-06-21T06:17:51.179Z,79.60
2018-06-21T06:20:19.574Z,78.50
2018-06-21T06:22:47.802Z,77.50
2018-06-21T06:27:44.312Z,79.80
2018-06-21T06:30:12.576Z,77.70
2018-06-21T06:32:40.869Z,76.10
2018-06-21T06:35:09.139Z,75.70
2018-06-21T06:37:37.484Z,75.40
2018-06-21T06:40:05.736Z,75.50
2018-06-21T06:42:33.986Z,75.20
2018-06-21T06:45:02.257Z,75.30
2018-06-21T06:47:30.501Z,75.40
2018-06-21T06:49:58.727Z,77.50
2018-06-21T06:52:26.912Z,80.30
2018-06-21T06:54:55.124Z,82.60
2018-06-21T06:57:24.244Z,83.00
2018-06-21T06:59:53.337Z,85.80
2018-06-21T07:02:21.492Z,87.60
2018-06-21T07:04:49.725Z,89.50
2018-06-21T07:07:17.980Z,90.50
2018-06-21T07:09:46.176Z,91.00
2018-06-21T07:12:14.349Z,91.10
2018-06-21T07:14:42.585Z,91.70
2018-06-21T07:17:10.749Z,92.70
2018-06-21T07:19:38.935Z,92.30
2018-06-21T07:22:08.657Z,92.30
2018-06-21T07:24:36.856Z,92.10
2018-06-21T07:27:06.008Z,91.70
2018-06-21T07:29:34.151Z,92.30
2018-06-21T07:32:02.369Z,91.90
2018-06-21T07:34:30.577Z,91.80
2018-06-21T07:36:59.576Z,91.70
2018-06-21T07:39:28.032Z,91.60
2018-06-21T07:41:56.531Z,91.50
2018-06-21T07:44:24.767Z,91.40
2018-06-21T07:46:53.488Z,91.30
2018-06-21T07:49:21.667Z,91.90
2018-06-21T07:51:50.454Z,92.00
2018-06-21T07:54:18.652Z,91.90
2018-06-21T07:56:50.413Z,91.80
2018-06-21T07:59:18.587Z,90.90
2018-06-21T08:01:47.048Z,90.30
2018-06-21T08:04:15.267Z,89.50
2018-06-21T08:06:43.517Z,90.10
2018-06-21T08:09:13.069Z,89.50
2018-06-21T08:11:41.286Z,88.70
2018-06-21T08:14:09.475Z,88.70
2018-06-21T08:16:39.687Z,89.00
2018-06-21T08:19:07.950Z,88.90
2018-06-21T08:21:36.188Z,88.90
2018-06-21T08:24:04.451Z,88.20
2018-06-21T08:26:33.083Z,87.70
2018-06-21T08:29:01.359Z,87.50
2018-06-21T08:31:29.604Z,86.50
2018-06-21T08:33:57.829Z,86.40
2018-06-21T08:36:26.092Z,85.50
2018-06-21T08:38:54.340Z,85.80
2018-06-21T08:41:22.696Z,84.30
2018-06-21T08:43:55.584Z,83.70
2018-06-21T08:46:23.864Z,83.10
2018-06-21T08:48:53.060Z,82.90
2018-06-21T08:51:21.336Z,84.40
2018-06-21T08:53:49.577Z,84.70
2018-06-21T08:56:17.808Z,84.40
2018-06-21T09:10:55.815Z,82.00
2018-06-21T09:13:36.027Z,84.80
2018-06-21T09:16:05.132Z,86.00
2018-06-21T09:18:34.526Z,85.90
2018-06-21T09:21:04.590Z,85.20
2018-06-21T09:23:32.824Z,86.30
2018-06-21T09:26:01.317Z,85.20
2018-06-21T09:28:41.558Z,85.30
2018-06-21T09:31:09.730Z,85.30
2018-06-21T09:33:38.029Z,83.90
2018-06-21T09:36:06.401Z,83.00
2018-06-21T09:38:40.133Z,82.00
2018-06-21T09:41:13.937Z,78.50
2018-06-21T09:44:03.825Z,77.60
2018-06-21T09:46:33.877Z,78.20
2018-06-21T09:48:53.580Z,79.30
2018-06-21T09:51:22.116Z,79.10
2018-06-21T09:56:18.665Z,79.20
2018-06-21T09:58:51.552Z,79.00
2018-06-21T10:01:19.731Z,77.70
2018-06-21T10:06:16.103Z,74.80
2018-06-21T10:08:44.959Z,73.60
2018-06-21T10:11:13.195Z,71.60
2018-06-21T10:13:41.407Z,74.00
2018-06-21T10:16:10.033Z,74.30
2018-06-21T10:18:38.257Z,75.10
2018-06-21T10:21:06.584Z,76.80
2018-06-21T10:23:34.962Z,77.90
2018-06-21T10:26:03.209Z,79.00
2018-06-21T10:31:04.616Z,80.80
2018-06-21T10:33:32.934Z,80.90
2018-06-21T10:36:01.737Z,80.90
2018-06-21T10:38:30.064Z,80.10
2018-06-21T10:40:59.224Z,75.30
2018-06-21T10:43:27.976Z,68.60
2018-06-21T10:46:00.470Z,67.70
2018-06-21T10:48:28.674Z,65.40
2018-06-21T10:53:25.255Z,60.10
2018-06-21T10:55:53.544Z,65.20
2018-06-21T10:58:21.756Z,69.00
2018-06-21T11:00:49.980Z,66.50
2018-06-21T11:03:18.254Z,64.50
2018-06-21T11:05:46.848Z,65.80
2018-06-21T11:08:15.119Z,66.10
2018-06-21T11:10:43.340Z,65.00
2018-06-21T11:13:11.547Z,66.40
2018-06-21T11:18:11.816Z,70.10
2018-06-21T11:20:40.061Z,71.60
2018-06-21T11:28:10.802Z,75.10
2018-06-21T11:30:42.232Z,72.90
2018-06-21T11:33:18.416Z,72.60
2018-06-21T11:35:46.640Z,73.20
2018-06-21T11:38:15.547Z,74.20
2018-06-21T11:40:43.687Z,74.60
2018-06-21T11:43:11.890Z,74.30
2018-06-21T11:45:47.312Z,74.10
2018-06-21T11:53:12.436Z,72.50
2018-06-21T11:55:41.119Z,71.80
2018-06-21T11:58:09.358Z,70.30
2018-06-21T12:00:37.576Z,70.80
2018-06-21T12:03:08.663Z,70.30
2018-06-21T12:05:36.954Z,66.40
2018-06-21T12:08:06.112Z,60.40
2018-06-21T12:10:34.316Z,60.30
2018-06-21T12:13:02.516Z,59.90
2018-06-21T12:15:31.021Z,59.40
2018-06-21T12:18:03.396Z,60.80
2018-06-21T12:20:31.668Z,60.10
2018-06-21T12:22:59.940Z,59.90
2018-06-21T12:25:28.127Z,60.20
2018-06-21T12:27:56.323Z,61.30
2018-06-21T12:30:24.549Z,60.50
2018-06-21T12:32:52.722Z,60.20
2018-06-21T12:35:20.947Z,60.60
2018-06-21T12:40:17.104Z,63.30
2018-06-21T12:45:13.276Z,64.60
2018-06-21T12:47:44.804Z,64.50
2018-06-21T12:50:13.106Z,65.60
2018-06-21T12:52:41.280Z,65.40
2018-06-21T12:57:38.483Z,65.00
2018-06-21T13:00:06.874Z,65.60
2018-06-21T13:02:42.700Z,65.90
2018-06-21T13:05:11.616Z,66.70
2018-06-21T13:07:40.772Z,66.60
2018-06-21T13:10:20.389Z,67.40
2018-06-21T13:15:24.178Z,66.40
2018-06-21T13:17:52.402Z,67.20
2018-06-21T13:20:20.701Z,68.30
2018-06-21T13:22:50.004Z,69.10
2018-06-21T13:25:18.253Z,67.60
2018-06-21T13:27:46.540Z,68.50
2018-06-21T13:30:15.009Z,69.80
2018-06-21T13:32:47.127Z,70.60
2018-06-21T13:35:15.491Z,70.40
2018-06-21T13:37:44.388Z,71.00
2018-06-21T13:40:12.869Z,70.90
2018-06-21T13:42:41.140Z,69.30
2018-06-21T13:45:09.406Z,70.60
2018-06-21T13:47:52.191Z,71.30
2018-06-21T13:50:21.230Z,73.20
2018-06-21T13:52:49.459Z,75.20
2018-06-21T13:55:17.995Z,78.80
2018-06-21T13:57:46.476Z,81.10
2018-06-21T14:00:14.791Z,82.20
2018-06-21T14:02:47.172Z,82.90
2018-06-21T14:05:19.073Z,83.40
2018-06-21T14:07:47.601Z,84.50
2018-06-21T14:12:43.815Z,86.20
2018-06-21T14:17:41.071Z,84.80
2018-06-21T14:22:37.513Z,84.60
2018-06-21T14:27:35.172Z,84.50
2018-06-21T14:30:03.458Z,83.80
2018-06-21T14:32:31.700Z,85.20
2018-06-21T14:35:05.170Z,84.70
2018-06-21T14:37:33.419Z,84.00
2018-06-21T14:40:02.348Z,84.40
2018-06-21T14:42:30.851Z,84.30
2018-06-21T14:44:59.097Z,84.10
2018-06-21T14:47:27.385Z,85.20
2018-06-21T14:49:59.855Z,85.50
2018-06-21T14:52:28.197Z,85.60
2018-06-21T14:54:56.752Z,85.20
2018-06-21T14:57:25.189Z,84.60
2018-06-21T14:59:53.544Z,83.70
2018-06-21T15:02:22.484Z,84.30
2018-06-21T15:07:25.895Z,84.90
2018-06-21T15:09:54.277Z,84.20
2018-06-21T15:12:23.628Z,84.00
2018-06-21T15:14:51.898Z,84.40
2018-06-21T15:17:20.492Z,83.70
2018-06-21T15:19:48.686Z,83.40
2018-06-21T15:22:16.997Z,83.80
2018-06-21T15:24:45.296Z,83.80
2018-06-21T15:27:13.701Z,84.10
2018-06-21T15:29:43.788Z,82.50
2018-06-21T15:32:12.164Z,83.20
2018-06-21T15:34:40.666Z,83.20
2018-06-21T15:37:08.860Z,84.50
2018-06-21T15:39:37.776Z,84.30
2018-06-21T15:42:06.328Z,84.60
2018-06-21T15:44:34.914Z,84.80
2018-06-21T15:49:38.135Z,85.60
2018-06-21T15:52:07.679Z,85.60
2018-06-21T15:54:35.899Z,86.10
2018-06-21T15:57:04.124Z,85.90
2018-06-21T15:59:32.296Z,86.30
2018-06-21T16:04:28.796Z,86.70
2018-06-21T16:07:00.421Z,86.50
2018-06-21T16:09:28.680Z,86.70
2018-06-21T16:11:57.012Z,87.20
2018-06-21T16:14:25.227Z,86.60
2018-06-21T16:16:53.659Z,86.10
2018-06-21T16:19:21.891Z,85.00
2018-06-21T16:21:50.324Z,82.90
2018-06-21T16:24:18.596Z,81.20
2018-06-21T16:26:46.883Z,80.50
2018-06-21T16:29:15.103Z,79.70
2018-06-21T16:31:43.403Z,78.30
2018-06-21T16:34:11.615Z,79.40
2018-06-21T16:36:39.873Z,79.60
2018-06-21T16:39:09.366Z,78.10
2018-06-21T16:41:39.332Z,76.10
2018-06-21T16:44:08.800Z,71.90
2018-06-21T16:46:37.124Z,69.60
2018-06-21T16:49:05.384Z,70.40
2018-06-21T16:51:33.592Z,71.30
2018-06-21T16:54:01.845Z,72.00
2018-06-21T16:56:31.047Z,68.80
2018-06-21T16:58:59.428Z,67.60
2018-06-21T17:01:27.825Z,67.80
2018-06-21T17:03:56.132Z,67.70
2018-06-21T17:06:27.852Z,63.20
2018-06-21T17:08:59.450Z,63.70
2018-06-21T17:11:27.687Z,61.50
2018-06-21T17:13:55.899Z,61.50
2018-06-21T17:16:24.161Z,61.60
2018-06-21T17:18:52.604Z,59.90
2018-06-21T17:21:20.860Z,58.60
2018-06-21T17:23:49.112Z,57.20
2018-06-21T17:26:18.146Z,55.70
2018-06-21T17:28:46.332Z,56.90
2018-06-21T17:31:14.659Z,56.70
2018-06-21T17:33:42.884Z,54.50
2018-06-21T17:36:14.700Z,54.10
2018-06-21T17:38:43.320Z,52.40
2018-06-21T17:41:11.573Z,51.00
2018-06-21T17:43:39.840Z,52.50
2018-06-21T17:46:08.291Z,52.00
2018-06-21T17:51:04.501Z,50.60
2018-06-21T17:53:32.717Z,50.60
2018-06-21T17:56:01.007Z,49.90
2018-06-21T17:58:29.233Z,49.20
2018-06-21T18:05:53.640Z,47.90
2018-06-21T18:08:22.104Z,48.60
2018-06-21T18:10:50.411Z,49.20
2018-06-21T18:13:18.623Z,49.00
2018-06-21T18:15:47.000Z,49.30
2018-06-21T18:20:45.120Z,48.70
2018-06-21T18:23:18.632Z,49.60
2018-06-21T18:28:20.022Z,48.60
2018-06-21T18:30:48.509Z,49.30
2018-06-21T18:33:16.730Z,49.60
2018-06-21T18:38:13.059Z,49.10
2018-06-21T18:40:41.700Z,49.90
2018-06-21T18:43:10.072Z,50.30
2018-06-21T18:45:38.889Z,50.70
2018-06-21T18:48:07.811Z,49.20
2018-06-21T18:50:36.132Z,50.10
2018-06-21T18:53:04.464Z,49.80
2018-06-21T18:55:32.652Z,50.20
2018-06-21T18:58:01.325Z,50.70
2018-06-21T19:00:29.667Z,49.90
2018-06-21T19:02:57.908Z,49.80
2018-06-21T19:08:00.641Z,51.30
2018-06-21T19:10:34.226Z,51.60
2018-06-21T19:13:02.478Z,51.70
2018-06-21T19:15:30.776Z,51.40
2018-06-21T19:17:58.996Z,51.70
2018-06-21T19:20:27.276Z,51.80
2018-06-21T19:22:58.390Z,51.80
2018-06-21T19:25:28.109Z,51.60
2018-06-21T19:27:56.393Z,52.00
2018-06-21T19:30:24.692Z,51.70
2018-06-21T19:32:54.010Z,51.80
2018-06-21T19:35:23.407Z,51.90
2018-06-21T19:40:21.881Z,52.80
2018-06-21T19:42:50.906Z,52.40
2018-06-21T19:45:19.520Z,52.40
2018-06-21T19:47:48.124Z,51.90
2018-06-21T19:50:16.495Z,52.10
2018-06-21T19:52:45.563Z,51.90
2018-06-21T19:55:18.630Z,52.00
2018-06-21T19:57:47.955Z,52.10
2018-06-21T20:00:16.357Z,52.40
2018-06-21T20:02:50.908Z,52.60
2018-06-21T20:05:19.215Z,52.90
2018-06-21T20:07:48.132Z,53.20
2018-06-21T20:10:17.656Z,53.50
2018-06-21T20:15:15.003Z,54.20
2018-06-21T20:20:17.594Z,54.00
2018-06-21T20:22:46.738Z,54.20
2018-06-21T20:25:15.261Z,54.40
2018-06-21T20:27:43.463Z,54.30
2018-06-21T20:30:14.620Z,53.70
2018-06-21T20:32:44.485Z,53.90
2018-06-21T20:35:12.768Z,53.90
2018-06-21T20:37:41.880Z,53.60
2018-06-21T20:40:14.065Z,53.80
2018-06-21T20:42:42.488Z,53.80
2018-06-21T20:45:11.341Z,54.10
2018-06-21T20:47:39.620Z,54.60
2018-06-21T20:55:11.325Z,55.20
2018-06-21T20:57:40.680Z,55.40
2018-06-21T21:00:08.957Z,55.40
2018-06-21T21:02:38.022Z,55.90
2018-06-21T21:05:10.512Z,56.00
2018-06-21T21:07:39.932Z,56.00
2018-06-21T21:10:10.924Z,56.10
2018-06-21T21:12:39.713Z,56.40
2018-06-21T21:15:08.860Z,56.70
2018-06-21T21:17:37.235Z,57.10
2018-06-21T21:20:06.212Z,57.50
2018-06-21T21:22:35.382Z,57.50
2018-06-21T21:25:07.385Z,57.90
2018-06-21T21:27:36.283Z,58.20
2018-06-21T21:30:07.168Z,58.20
2018-06-21T21:32:35.539Z,58.30
2018-06-21T21:35:03.880Z,57.90
2018-06-21T21:37:32.169Z,57.60
2018-06-21T21:40:05.724Z,57.90
2018-06-21T21:42:35.275Z,58.00
2018-06-21T21:45:04.072Z,58.10
2018-06-21T21:47:32.305Z,57.90
2018-06-21T21:50:00.807Z,57.90
2018-06-21T21:52:30.193Z,58.10
2018-06-21T21:54:58.542Z,58.30
2018-06-21T21:57:31.087Z,58.20
2018-06-21T21:59:59.612Z,58.30
2018-06-21T22:02:27.884Z,58.60
2018-06-21T22:04:56.200Z,58.80
2018-06-21T22:07:24.528Z,59.20
2018-06-21T22:09:52.824Z,59.30
2018-06-21T22:12:22.204Z,59.60
2018-06-21T22:14:51.046Z,60.10
2018-06-21T22:17:20.191Z,60.60
2018-06-21T22:19:48.545Z,60.70
2018-06-21T22:22:16.744Z,61.10
2018-06-21T22:24:45.000Z,61.20
2018-06-21T22:27:13.216Z,61.70
2018-06-21T22:32:10.212Z,62.20
2018-06-21T22:34:38.432Z,62.50
2018-06-21T22:37:06.675Z,62.30
2018-06-21T22:39:35.415Z,62.80
2018-06-21T22:42:03.651Z,62.60
2018-06-21T22:44:32.867Z,61.90
2018-06-21T22:47:01.195Z,62.40
2018-06-21T22:49:30.347Z,62.60
2018-06-21T22:51:58.584Z,62.50
2018-06-21T22:54:26.846Z,62.50
2018-06-21T22:56:55.344Z,63.10
2018-06-21T22:59:23.559Z,63.20
2018-06-21T23:01:52.101Z,63.10
2018-06-21T23:04:20.333Z,63.30
2018-06-21T23:06:48.596Z,63.90
2018-06-21T23:09:16.863Z,63.80
2018-06-21T23:11:53.769Z,64.10
2018-06-21T23:14:21.980Z,63.70
2018-06-21T23:19:27.579Z,64.20
2018-06-21T23:21:55.817Z,64.30
2018-06-21T23:24:24.823Z,64.70
2018-06-21T23:26:57.595Z,65.10
2018-06-21T23:29:25.908Z,65.50
2018-06-21T23:31:54.105Z,65.40
2018-06-21T23:34:22.839Z,65.40
2018-06-21T23:36:51.365Z,65.40
2018-06-21T23:39:19.856Z,65.60
2018-06-21T23:41:48.075Z,65.80
2018-06-21T23:44:16.308Z,66.10
2018-06-21T23:46:44.609Z,66.50
2018-06-21T23:49:13.447Z,66.60
2018-06-21T23:54:11.531Z,66.90
2018-06-21T23:56:40.404Z,67.30
2018-06-21T23:59:08.909Z,67.50
